Time;durP1;ratioP1;P1;durP2;ratioP2;P2;SDS_P1;SDS_P2;PMS_P1;PMS_P2;Temp;Humidity;BMP_temperature;BMP_pressure;BME280_temperature;BME280_humidity;BME280_pressure;Samples;Min_cycle;Max_cycle;Signal;HPM_P1;HPM_P2
2023/05/20 00:00:17;;;;;;;3.17;2.22;;;;;;;;;;10435945;28;20033;-75
2023/05/20 00:05:18;;;;;;;2.97;2.33;;;;;;;;;;10418224;28;20449;-74
2023/05/20 00:10:18;;;;;;;4.18;2.40;;;;;;;;;;10429763;28;20029;-71
2023/05/20 00:15:19;;;;;;;5.00;2.60;;;;;;;;;;10425979;28;20025;-69
2023/05/20 00:20:19;;;;;;;9.48;2.67;;;;;;;;;;10453291;28;20988;-69
2023/05/20 00:25:20;;;;;;;2.92;2.40;;;;;;;;;;10447122;28;20033;-68
2023/05/20 00:30:20;;;;;;;3.40;2.47;;;;;;;;;;10430251;28;20021;-69
2023/05/20 00:35:21;;;;;;;2.47;2.28;;;;;;;;;;10434539;28;20498;-68
2023/05/20 00:40:22;;;;;;;2.50;2.23;;;;;;;;;;10434279;28;20033;-68
2023/05/20 00:45:22;;;;;;;4.18;2.63;;;;;;;;;;10433593;28;20899;-69
2023/05/20 00:50:23;;;;;;;2.72;2.38;;;;;;;;;;10424478;28;20022;-69
2023/05/20 00:55:24;;;;;;;3.33;2.43;;;;;;;;;;10452798;28;20029;-71
2023/05/20 01:00:24;;;;;;;2.50;2.30;;;;;;;;;;10456038;28;20821;-68
2023/05/20 01:05:25;;;;;;;4.05;2.22;;;;;;;;;;10452058;28;20024;-70
2023/05/20 01:10:28;;;;;;;2.55;2.35;;;;;;;;;;10469155;28;20399;-69
2023/05/20 01:15:30;;;;;;;2.90;2.08;;;;;;;;;;10455922;28;20025;-69
2023/05/20 01:20:31;;;;;;;2.83;2.50;;;;;;;;;;10455532;28;20447;-70
2023/05/20 01:25:31;;;;;;;2.97;2.08;;;;;;;;;;10442968;28;20046;-70
2023/05/20 01:30:36;;;;;;;2.20;2.00;;;;;;;;;;10440926;28;20021;-69
2023/05/20 01:35:38;;;;;;;2.92;2.30;;;;;;;;;;10446620;28;20056;-69
2023/05/20 01:40:40;;;;;;;3.13;2.28;;;;;;;;;;10447159;28;20035;-69
2023/05/20 01:45:41;;;;;;;4.22;2.08;;;;;;;;;;10441104;28;20369;-69
2023/05/20 01:50:41;;;;;;;2.63;2.15;;;;;;;;;;10461078;28;20021;-69
2023/05/20 01:55:42;;;;;;;2.13;1.88;;;;;;;;;;10444199;28;20083;-73
2023/05/20 02:00:42;;;;;;;2.88;2.10;;;;;;;;;;10438442;28;20028;-73
2023/05/20 02:05:43;;;;;;;2.33;2.13;;;;;;;;;;10458234;28;20024;-73
2023/05/20 02:10:43;;;;;;;3.60;2.27;;;;;;;;;;10471078;28;20031;-73
2023/05/20 02:15:44;;;;;;;3.50;2.43;;;;;;;;;;10464864;28;20484;-73
2023/05/20 02:20:44;;;;;;;2.35;1.83;;;;;;;;;;10461893;28;20463;-73
2023/05/20 02:25:45;;;;;;;3.20;2.03;;;;;;;;;;10488961;28;20031;-73
2023/05/20 02:30:45;;;;;;;2.08;1.88;;;;;;;;;;10432060;28;20029;-73
2023/05/20 02:35:46;;;;;;;2.00;1.85;;;;;;;;;;10478127;28;20480;-73
2023/05/20 02:40:46;;;;;;;2.33;2.10;;;;;;;;;;10449519;28;20032;-73
2023/05/20 02:45:47;;;;;;;3.90;2.00;;;;;;;;;;10451856;28;20474;-74
2023/05/20 02:50:47;;;;;;;2.97;1.90;;;;;;;;;;10463299;28;20524;-72
2023/05/20 02:55:47;;;;;;;1.88;1.77;;;;;;;;;;10441932;28;20509;-74
2023/05/20 03:00:48;;;;;;;2.23;1.70;;;;;;;;;;10438246;28;20537;-72
2023/05/20 03:05:49;;;;;;;1.90;1.77;;;;;;;;;;10450830;28;20519;-71
2023/05/20 03:10:49;;;;;;;2.13;1.90;;;;;;;;;;10436954;28;20040;-72
2023/05/20 03:15:50;;;;;;;2.97;1.75;;;;;;;;;;10444796;28;20029;-74
2023/05/20 03:20:50;;;;;;;2.13;1.75;;;;;;;;;;10441524;28;20218;-75
2023/05/20 03:25:50;;;;;;;2.50;1.93;;;;;;;;;;10427814;28;20021;-75
2023/05/20 03:30:51;;;;;;;7.60;2.30;;;;;;;;;;10446138;28;20446;-75
2023/05/20 03:35:51;;;;;;;2.10;1.80;;;;;;;;;;10437014;28;20462;-73
2023/05/20 03:40:52;;;;;;;1.95;1.85;;;;;;;;;;10422322;28;20048;-72
2023/05/20 03:45:52;;;;;;;2.17;1.80;;;;;;;;;;10426277;28;20435;-72
2023/05/20 03:50:53;;;;;;;2.07;1.87;;;;;;;;;;10449049;28;20442;-71
2023/05/20 03:55:53;;;;;;;1.92;1.73;;;;;;;;;;10473938;28;21022;-71
2023/05/20 04:00:54;;;;;;;2.55;1.90;;;;;;;;;;10462962;28;20051;-76
2023/05/20 04:05:55;;;;;;;5.88;1.90;;;;;;;;;;10440235;28;20025;-75
2023/05/20 04:10:56;;;;;;;2.30;1.90;;;;;;;;;;10436085;28;20029;-75
2023/05/20 04:15:56;;;;;;;2.00;1.80;;;;;;;;;;10467562;28;20442;-73
2023/05/20 04:20:57;;;;;;;2.03;1.83;;;;;;;;;;10451473;28;20079;-73
2023/05/20 04:26:01;;;;;;;1.83;1.63;;;;;;;;;;10445372;28;20863;-73
2023/05/20 04:31:04;;;;;;;3.35;1.90;;;;;;;;;;10446296;28;20032;-72
2023/05/20 04:36:10;;;;;;;2.17;1.98;;;;;;;;;;10444539;28;20056;-72
2023/05/20 04:41:11;;;;;;;2.45;2.25;;;;;;;;;;10438770;28;20063;-72
2023/05/20 04:46:11;;;;;;;3.22;2.20;;;;;;;;;;10433427;28;20116;-72
2023/05/20 04:51:12;;;;;;;3.27;2.10;;;;;;;;;;10432785;28;20017;-72
2023/05/20 04:56:12;;;;;;;2.10;1.90;;;;;;;;;;10458927;28;20624;-73
2023/05/20 05:01:14;;;;;;;1.97;1.83;;;;;;;;;;10454662;28;20505;-73
2023/05/20 05:06:15;;;;;;;2.75;2.03;;;;;;;;;;10435210;28;20629;-71
2023/05/20 05:11:16;;;;;;;2.03;1.90;;;;;;;;;;10429760;28;20491;-70
2023/05/20 05:16:17;;;;;;;1.92;1.67;;;;;;;;;;10442716;28;20376;-73
2023/05/20 05:21:17;;;;;;;1.80;1.70;;;;;;;;;;10427506;28;20095;-68
2023/05/20 05:26:18;;;;;;;4.38;1.98;;;;;;;;;;10442325;28;20025;-73
2023/05/20 05:31:18;;;;;;;5.18;1.92;;;;;;;;;;10453552;28;20467;-74
2023/05/20 05:36:19;;;;;;;2.00;1.80;;;;;;;;;;10453194;28;20021;-74
2023/05/20 05:41:20;;;;;;;2.90;2.20;;;;;;;;;;10456851;28;20036;-75
2023/05/20 05:46:20;;;;;;;2.15;1.67;;;;;;;;;;10444369;28;21143;-74
2023/05/20 05:51:29;;;;;;;2.30;2.08;;;;;;;;;;10448365;28;20100;-74
2023/05/20 05:56:30;;;;;;;1.90;1.80;;;;;;;;;;10461697;28;20021;-69
2023/05/20 06:01:31;;;;;;;2.65;1.85;;;;;;;;;;10453331;28;20499;-69
2023/05/20 06:06:32;;;;;;;2.92;2.08;;;;;;;;;;10451942;28;20207;-73
2023/05/20 06:11:32;;;;;;;2.80;1.80;;;;;;;;;;10470645;28;20032;-74
2023/05/20 06:16:33;;;;;;;6.83;3.50;;;;;;;;;;10449398;28;20035;-73
2023/05/20 06:21:33;;;;;;;6.10;3.10;;;;;;;;;;10463647;28;20996;-71
2023/05/20 06:26:34;;;;;;;5.38;3.13;;;;;;;;;;10463145;28;20461;-70
2023/05/20 06:31:34;;;;;;;24.93;4.23;;;;;;;;;;10467890;28;20036;-72
2023/05/20 06:36:35;;;;;;;18.08;3.92;;;;;;;;;;10464717;28;20569;-72
2023/05/20 06:41:35;;;;;;;9.63;3.80;;;;;;;;;;10452356;28;20484;-73
2023/05/20 06:46:36;;;;;;;14.38;3.85;;;;;;;;;;10453686;28;20474;-73
2023/05/20 06:51:36;;;;;;;14.33;3.80;;;;;;;;;;10452843;28;20048;-73
2023/05/20 06:56:37;;;;;;;10.10;4.32;;;;;;;;;;10455079;28;21001;-70
2023/05/20 07:01:37;;;;;;;5.00;3.75;;;;;;;;;;10452999;28;20036;-70
2023/05/20 07:06:37;;;;;;;7.23;3.57;;;;;;;;;;10451780;28;20040;-70
2023/05/20 07:11:38;;;;;;;5.37;3.40;;;;;;;;;;10449326;28;20454;-71
2023/05/20 07:16:38;;;;;;;6.03;3.20;;;;;;;;;;10448917;28;20454;-69
2023/05/20 07:21:38;;;;;;;5.50;3.00;;;;;;;;;;10442859;28;21024;-70
2023/05/20 07:26:39;;;;;;;6.43;3.57;;;;;;;;;;10442777;28;20461;-71
2023/05/20 07:31:40;;;;;;;6.30;3.60;;;;;;;;;;10443467;28;20029;-71
2023/05/20 07:36:40;;;;;;;7.50;3.50;;;;;;;;;;10440045;28;20044;-71
2023/05/20 07:41:41;;;;;;;6.38;2.70;;;;;;;;;;10452503;28;20473;-70
2023/05/20 07:46:41;;;;;;;8.07;3.13;;;;;;;;;;10462686;28;20519;-70
2023/05/20 07:51:42;;;;;;;6.68;3.60;;;;;;;;;;10461593;28;20025;-69
2023/05/20 07:56:42;;;;;;;5.95;3.30;;;;;;;;;;10471920;28;20376;-69
2023/05/20 08:01:43;;;;;;;7.10;3.30;;;;;;;;;;10469201;28;20506;-69
2023/05/20 08:06:43;;;;;;;8.32;3.42;;;;;;;;;;10421419;28;20554;-68
2023/05/20 08:11:44;;;;;;;5.78;3.03;;;;;;;;;;10443932;28;20021;-68
2023/05/20 08:16:44;;;;;;;8.52;3.70;;;;;;;;;;10446126;28;20061;-68
2023/05/20 08:21:46;;;;;;;3.55;3.00;;;;;;;;;;10450864;28;20043;-67
2023/05/20 08:26:46;;;;;;;5.45;3.72;;;;;;;;;;10433352;28;20052;-68
2023/05/20 08:31:46;;;;;;;7.13;3.03;;;;;;;;;;10431411;28;20485;-69
2023/05/20 08:36:47;;;;;;;4.77;3.50;;;;;;;;;;10444596;28;20507;-68
2023/05/20 08:41:48;;;;;;;8.07;4.32;;;;;;;;;;10441571;28;20825;-68
2023/05/20 08:46:49;;;;;;;10.65;5.30;;;;;;;;;;10428587;28;20044;-68
2023/05/20 08:51:49;;;;;;;14.65;5.93;;;;;;;;;;10417943;28;20271;-68
2023/05/20 08:56:52;;;;;;;6.82;5.45;;;;;;;;;;10432260;28;20179;-67
2023/05/20 09:01:53;;;;;;;8.93;5.03;;;;;;;;;;10446874;28;20112;-68
2023/05/20 09:06:54;;;;;;;8.52;4.68;;;;;;;;;;10448681;28;20120;-68
2023/05/20 09:11:54;;;;;;;24.73;5.65;;;;;;;;;;10446257;28;20044;-67
2023/05/20 09:16:55;;;;;;;8.43;5.00;;;;;;;;;;10457662;28;21232;-68
2023/05/20 09:21:55;;;;;;;9.45;5.10;;;;;;;;;;10440856;28;20520;-68
2023/05/20 09:26:57;;;;;;;8.15;5.68;;;;;;;;;;10418424;28;20025;-68
2023/05/20 09:32:00;;;;;;;7.57;5.47;;;;;;;;;;10435550;28;20115;-68
2023/05/20 09:37:02;;;;;;;8.55;5.32;;;;;;;;;;10456566;28;20275;-68
2023/05/20 09:42:27;;;;;;;5.18;4.50;;;;;;;;;;10457441;28;20036;-68
2023/05/20 09:47:28;;;;;;;8.00;5.20;;;;;;;;;;10458616;28;20037;-68
2023/05/20 09:52:28;;;;;;;7.65;5.47;;;;;;;;;;10482521;28;20376;-68
2023/05/20 09:57:29;;;;;;;6.43;5.10;;;;;;;;;;10454311;28;20037;-68
2023/05/20 10:02:31;;;;;;;7.00;5.13;;;;;;;;;;10437582;28;20112;-68
2023/05/20 10:08:04;;;;;;;8.40;5.35;;;;;;;;;;10458420;28;20090;-68
2023/05/20 10:13:11;;;;;;;6.13;4.80;;;;;;;;;;10439774;28;20102;-68
2023/05/20 10:18:14;;;;;;;5.95;4.93;;;;;;;;;;10436899;28;20033;-68
2023/05/20 10:23:22;;;;;;;5.28;4.78;;;;;;;;;;10448111;28;20104;-68
2023/05/20 10:28:30;;;;;;;6.57;5.18;;;;;;;;;;10450159;28;20416;-68
2023/05/20 10:33:41;;;;;;;8.70;5.05;;;;;;;;;;10453372;28;20280;-68
2023/05/20 10:38:51;;;;;;;6.25;5.63;;;;;;;;;;10439028;28;20030;-68
2023/05/20 10:44:05;;;;;;;8.57;5.65;;;;;;;;;;10442066;28;20045;-68
2023/05/20 10:49:17;;;;;;;7.47;5.40;;;;;;;;;;10449286;28;20112;-68
2023/05/20 10:54:17;;;;;;;9.00;5.97;;;;;;;;;;10455653;28;20029;-68
2023/05/20 10:59:18;;;;;;;7.73;6.50;;;;;;;;;;10451425;28;20028;-68
2023/05/20 11:04:19;;;;;;;7.75;6.82;;;;;;;;;;10460577;28;20506;-68
2023/05/20 11:09:20;;;;;;;12.60;7.65;;;;;;;;;;10449815;28;20120;-68
2023/05/20 11:14:20;;;;;;;8.73;7.82;;;;;;;;;;10457239;28;20090;-68
2023/05/20 11:19:21;;;;;;;10.93;7.97;;;;;;;;;;10452073;28;20025;-66
2023/05/20 11:24:26;;;;;;;8.60;7.70;;;;;;;;;;10447725;28;20036;-68
2023/05/20 11:29:27;;;;;;;9.23;7.60;;;;;;;;;;10429294;28;20045;-67
2023/05/20 11:34:35;;;;;;;9.57;7.65;;;;;;;;;;10443719;28;20029;-67
2023/05/20 11:39:36;;;;;;;10.10;8.10;;;;;;;;;;10441077;28;20034;-68
2023/05/20 11:44:43;;;;;;;10.43;8.35;;;;;;;;;;10437861;28;20056;-68
2023/05/20 11:49:47;;;;;;;11.48;7.97;;;;;;;;;;10454446;28;20516;-68
2023/05/20 11:54:54;;;;;;;9.05;7.35;;;;;;;;;;10454322;28;20147;-68
2023/05/20 11:59:55;;;;;;;10.57;7.82;;;;;;;;;;10442573;28;20024;-67
2023/05/20 12:04:56;;;;;;;7.88;7.07;;;;;;;;;;10452439;28;20021;-67
2023/05/20 12:09:57;;;;;;;10.23;7.38;;;;;;;;;;10433786;28;20102;-67
2023/05/20 12:14:57;;;;;;;10.67;7.33;;;;;;;;;;10433174;28;20021;-67
2023/05/20 12:19:58;;;;;;;9.48;7.38;;;;;;;;;;10439231;28;20459;-68
2023/05/20 12:24:58;;;;;;;10.30;7.85;;;;;;;;;;10457713;28;20047;-68
2023/05/20 12:29:59;;;;;;;10.13;7.63;;;;;;;;;;10446736;28;20489;-67
2023/05/20 12:34:59;;;;;;;11.82;7.55;;;;;;;;;;10441794;28;20454;-69
2023/05/20 12:40:00;;;;;;;32.50;8.98;;;;;;;;;;10433961;28;20048;-69
2023/05/20 12:45:01;;;;;;;14.77;8.00;;;;;;;;;;10438655;28;20037;-69
2023/05/20 12:50:03;;;;;;;18.17;9.23;;;;;;;;;;10446823;28;20044;-69
2023/05/20 12:55:05;;;;;;;13.88;10.05;;;;;;;;;;10438908;28;20037;-69
2023/05/20 13:00:07;;;;;;;16.33;12.23;;;;;;;;;;10436825;28;20060;-69
2023/05/20 13:05:08;;;;;;;19.85;11.88;;;;;;;;;;10439240;28;20134;-69
2023/05/20 13:10:10;;;;;;;18.85;11.98;;;;;;;;;;10440687;28;20357;-69
2023/05/20 13:15:12;;;;;;;15.95;11.13;;;;;;;;;;10447730;28;20028;-70
2023/05/20 13:20:12;;;;;;;18.67;11.80;;;;;;;;;;10444511;28;20043;-70
2023/05/20 13:25:13;;;;;;;15.70;10.55;;;;;;;;;;10443289;28;20051;-70
2023/05/20 13:30:13;;;;;;;18.25;10.10;;;;;;;;;;10443463;28;20075;-70
2023/05/20 13:35:15;;;;;;;15.83;10.10;;;;;;;;;;10441540;28;20013;-70
2023/05/20 13:40:16;;;;;;;12.40;9.75;;;;;;;;;;10447571;28;20810;-70
2023/05/20 13:45:17;;;;;;;13.35;10.85;;;;;;;;;;10448404;28;20361;-70
2023/05/20 13:50:18;;;;;;;12.82;9.70;;;;;;;;;;10445119;28;20464;-69
2023/05/20 13:55:19;;;;;;;14.05;9.50;;;;;;;;;;10440318;28;20039;-70
2023/05/20 14:00:19;;;;;;;13.75;9.35;;;;;;;;;;10450431;28;20017;-69
2023/05/20 14:05:20;;;;;;;13.18;8.80;;;;;;;;;;10444079;28;20048;-69
2023/05/20 14:10:20;;;;;;;14.63;8.80;;;;;;;;;;10458695;28;20361;-70
2023/05/20 14:15:21;;;;;;;10.35;8.88;;;;;;;;;;10451337;28;20024;-68
2023/05/20 14:20:21;;;;;;;11.93;9.52;;;;;;;;;;10452649;28;20029;-68
2023/05/20 14:25:22;;;;;;;11.87;9.43;;;;;;;;;;10445321;28;20446;-68
2023/05/20 14:30:22;;;;;;;11.27;9.32;;;;;;;;;;10434348;28;20501;-68
2023/05/20 14:35:23;;;;;;;12.95;8.73;;;;;;;;;;10453827;28;20060;-69
2023/05/20 14:40:23;;;;;;;10.52;8.55;;;;;;;;;;10451955;28;20045;-68
2023/05/20 14:45:23;;;;;;;9.43;8.15;;;;;;;;;;10461910;28;20045;-69
2023/05/20 14:50:24;;;;;;;11.60;8.30;;;;;;;;;;10462934;28;20035;-69
2023/05/20 14:55:24;;;;;;;12.73;8.68;;;;;;;;;;10456106;28;20473;-68
2023/05/20 15:00:25;;;;;;;11.75;8.35;;;;;;;;;;10451802;28;20056;-68
2023/05/20 15:05:25;;;;;;;12.02;7.20;;;;;;;;;;10452403;28;20439;-67
2023/05/20 15:10:26;;;;;;;10.38;7.47;;;;;;;;;;10440707;28;20078;-68
2023/05/20 15:15:26;;;;;;;8.85;7.78;;;;;;;;;;10441736;28;20025;-68
2023/05/20 15:20:27;;;;;;;9.65;7.43;;;;;;;;;;10437668;28;20067;-68
2023/05/20 15:25:27;;;;;;;11.20;7.33;;;;;;;;;;10449528;28;20533;-68
2023/05/20 15:30:27;;;;;;;12.20;7.63;;;;;;;;;;10437876;28;20443;-68
2023/05/20 15:35:28;;;;;;;13.05;7.65;;;;;;;;;;10449300;28;20086;-68
2023/05/20 15:40:29;;;;;;;8.35;7.10;;;;;;;;;;10437405;28;20029;-68
2023/05/20 15:45:30;;;;;;;11.00;6.97;;;;;;;;;;10449170;28;20048;-68
2023/05/20 15:50:30;;;;;;;9.43;6.97;;;;;;;;;;10436605;28;20454;-68
2023/05/20 15:55:31;;;;;;;9.52;7.22;;;;;;;;;;10445854;28;20025;-68
2023/05/20 16:00:32;;;;;;;9.50;6.65;;;;;;;;;;10438959;28;20021;-68
2023/05/20 16:05:32;;;;;;;8.65;6.40;;;;;;;;;;10445525;28;20031;-68
2023/05/20 16:10:33;;;;;;;10.40;7.43;;;;;;;;;;10445592;28;20366;-68
2023/05/20 16:15:35;;;;;;;14.32;6.30;;;;;;;;;;10446641;28;20455;-68
2023/05/20 16:20:35;;;;;;;7.75;6.65;;;;;;;;;;10458168;28;20045;-68
2023/05/20 16:25:36;;;;;;;8.32;6.82;;;;;;;;;;10459289;28;20021;-68
2023/05/20 16:30:36;;;;;;;11.20;7.22;;;;;;;;;;10448080;28;20484;-69
2023/05/20 16:35:37;;;;;;;8.15;6.85;;;;;;;;;;10454924;28;20480;-69
2023/05/20 16:40:37;;;;;;;11.70;6.70;;;;;;;;;;10453236;28;20028;-69
2023/05/20 16:45:37;;;;;;;8.07;6.67;;;;;;;;;;10447924;28;20483;-69
2023/05/20 16:50:38;;;;;;;7.43;6.63;;;;;;;;;;10448861;28;20442;-69
2023/05/20 16:55:38;;;;;;;7.07;6.30;;;;;;;;;;10466463;28;21027;-69
2023/05/20 17:00:39;;;;;;;8.53;6.13;;;;;;;;;;10453071;28;20028;-69
2023/05/20 17:05:40;;;;;;;14.10;6.68;;;;;;;;;;10436621;28;20485;-69
2023/05/20 17:10:40;;;;;;;10.05;6.55;;;;;;;;;;10441525;28;20388;-69
2023/05/20 17:15:41;;;;;;;7.50;6.13;;;;;;;;;;10437379;28;20116;-69
2023/05/20 17:20:41;;;;;;;8.15;6.63;;;;;;;;;;10443890;28;20539;-69
2023/05/20 17:25:42;;;;;;;12.75;6.18;;;;;;;;;;10437103;28;20025;-68
2023/05/20 17:30:42;;;;;;;9.75;6.03;;;;;;;;;;10454076;28;20040;-69
2023/05/20 17:35:43;;;;;;;8.90;6.68;;;;;;;;;;10450334;28;20021;-69
2023/05/20 17:40:43;;;;;;;7.65;6.43;;;;;;;;;;10452474;28;20029;-68
2023/05/20 17:45:44;;;;;;;6.45;5.72;;;;;;;;;;10466329;28;20505;-69
2023/05/20 17:50:45;;;;;;;16.73;6.25;;;;;;;;;;10458319;28;20025;-66
2023/05/20 17:55:46;;;;;;;14.25;7.13;;;;;;;;;;10460472;28;20040;-68
2023/05/20 18:00:46;;;;;;;10.32;6.72;;;;;;;;;;10463375;28;20025;-68
2023/05/20 18:05:47;;;;;;;10.77;6.93;;;;;;;;;;10457102;28;20033;-68
2023/05/20 18:10:47;;;;;;;11.30;7.45;;;;;;;;;;10433041;28;20049;-68
2023/05/20 18:15:48;;;;;;;17.33;7.95;;;;;;;;;;10458294;28;20021;-68
2023/05/20 18:20:48;;;;;;;15.65;7.97;;;;;;;;;;10451635;28;20150;-68
2023/05/20 18:25:49;;;;;;;16.27;6.90;;;;;;;;;;10451337;28;20029;-67
2023/05/20 18:30:49;;;;;;;13.55;7.85;;;;;;;;;;10446287;28;20524;-67
2023/05/20 18:35:53;;;;;;;17.97;7.20;;;;;;;;;;10449609;28;20052;-66
2023/05/20 18:40:53;;;;;;;11.65;7.95;;;;;;;;;;10445594;28;20519;-67
2023/05/20 18:45:54;;;;;;;11.15;7.80;;;;;;;;;;10459001;28;20099;-66
2023/05/20 18:50:55;;;;;;;15.77;6.95;;;;;;;;;;10458382;28;20013;-67
2023/05/20 18:56:00;;;;;;;10.90;7.50;;;;;;;;;;10441107;28;20435;-67
2023/05/20 19:01:00;;;;;;;10.40;6.85;;;;;;;;;;10433035;28;20032;-67
2023/05/20 19:06:00;;;;;;;17.50;7.23;;;;;;;;;;10432167;28;20029;-67
2023/05/20 19:11:01;;;;;;;10.82;6.88;;;;;;;;;;10449063;28;20442;-67
2023/05/20 19:16:01;;;;;;;12.15;6.22;;;;;;;;;;10447055;28;20035;-67
2023/05/20 19:21:02;;;;;;;11.23;7.53;;;;;;;;;;10482081;28;20430;-67
2023/05/20 19:26:02;;;;;;;13.02;7.50;;;;;;;;;;10462006;28;20478;-67
2023/05/20 19:31:03;;;;;;;12.15;7.00;;;;;;;;;;10467855;28;20028;-67
2023/05/20 19:36:04;;;;;;;11.17;7.13;;;;;;;;;;10451190;28;20461;-67
2023/05/20 19:41:05;;;;;;;10.48;6.30;;;;;;;;;;10449078;28;20478;-67
2023/05/20 19:46:05;;;;;;;10.82;6.78;;;;;;;;;;10404012;22;20045;-59
2023/05/20 19:51:06;;;;;;;13.80;6.45;;;;;;;;;;10367695;28;20033;-59
2023/05/20 19:56:07;;;;;;;11.77;6.47;;;;;;;;;;10348702;28;20084;-59
2023/05/20 20:01:07;;;;;;;10.23;5.78;;;;;;;;;;10334148;28;20503;-59
2023/05/20 20:06:08;;;;;;;9.77;6.40;;;;;;;;;;10325357;28;20034;-59
2023/05/20 20:11:09;;;;;;;9.35;6.38;;;;;;;;;;10327263;28;20826;-59
2023/05/20 20:16:10;;;;;;;10.43;6.95;;;;;;;;;;10326498;28;20102;-62
2023/05/20 20:21:13;;;;;;;9.32;6.43;;;;;;;;;;10348313;28;20083;-61
2023/05/20 20:26:14;;;;;;;15.75;6.72;;;;;;;;;;10325987;28;20406;-60
2023/05/20 20:31:14;;;;;;;21.17;6.53;;;;;;;;;;10326325;28;20026;-63
2023/05/20 20:36:15;;;;;;;13.38;6.43;;;;;;;;;;10345112;28;20494;-64
2023/05/20 20:41:16;;;;;;;7.18;5.53;;;;;;;;;;10330794;28;20040;-59
2023/05/20 20:46:16;;;;;;;11.60;6.20;;;;;;;;;;10324776;28;20547;-59
2023/05/20 20:51:17;;;;;;;11.85;6.22;;;;;;;;;;10333580;28;20034;-59
2023/05/20 20:56:17;;;;;;;8.75;6.70;;;;;;;;;;10324113;28;20677;-59
2023/05/20 21:01:18;;;;;;;11.57;5.80;;;;;;;;;;10325424;28;20030;-59
2023/05/20 21:06:18;;;;;;;8.93;6.10;;;;;;;;;;10324605;28;20608;-59
2023/05/20 21:11:21;;;;;;;13.25;6.03;;;;;;;;;;10325918;28;20038;-59
2023/05/20 21:16:21;;;;;;;7.25;5.25;;;;;;;;;;10324301;28;20497;-59
2023/05/20 21:21:22;;;;;;;9.38;5.78;;;;;;;;;;10325091;28;20110;-58
2023/05/20 21:26:24;;;;;;;10.10;6.43;;;;;;;;;;10323137;28;20455;-59
2023/05/20 21:31:24;;;;;;;17.55;6.25;;;;;;;;;;10322891;28;20041;-59
2023/05/20 21:36:25;;;;;;;9.75;6.30;;;;;;;;;;10323462;28;20038;-59
2023/05/20 21:41:26;;;;;;;10.32;5.25;;;;;;;;;;10322654;28;20034;-59
2023/05/20 21:46:26;;;;;;;11.15;6.05;;;;;;;;;;10315087;28;20042;-58
2023/05/20 21:51:26;;;;;;;6.40;5.10;;;;;;;;;;10323012;28;20042;-58
2023/05/20 21:56:27;;;;;;;5.53;5.03;;;;;;;;;;10323003;28;20497;-58
2023/05/20 22:01:27;;;;;;;10.53;5.90;;;;;;;;;;10323232;28;21244;-59
2023/05/20 22:06:28;;;;;;;8.50;5.75;;;;;;;;;;10317575;28;20487;-56
2023/05/20 22:11:30;;;;;;;10.63;5.87;;;;;;;;;;10318573;28;20042;-57
2023/05/20 22:16:30;;;;;;;8.05;5.85;;;;;;;;;;10324848;28;20635;-57
2023/05/20 22:21:30;;;;;;;9.25;5.63;;;;;;;;;;10321878;28;20169;-55
2023/05/20 22:26:31;;;;;;;8.77;5.85;;;;;;;;;;10334122;28;20400;-57
2023/05/20 22:31:35;;;;;;;9.27;6.22;;;;;;;;;;10339797;28;20488;-57
2023/05/20 22:36:36;;;;;;;10.80;6.40;;;;;;;;;;10329457;28;20061;-57
2023/05/20 22:41:36;;;;;;;7.40;6.18;;;;;;;;;;10327844;28;20117;-57
2023/05/20 22:46:37;;;;;;;13.40;7.15;;;;;;;;;;10328837;28;20038;-57
2023/05/20 22:51:37;;;;;;;8.43;5.97;;;;;;;;;;10329480;28;20026;-57
2023/05/20 22:56:37;;;;;;;10.70;7.10;;;;;;;;;;10329139;28;20138;-57
2023/05/20 23:01:38;;;;;;;8.38;6.45;;;;;;;;;;10329945;28;20042;-56
2023/05/20 23:06:38;;;;;;;8.83;6.27;;;;;;;;;;10329670;28;20421;-55
2023/05/20 23:11:39;;;;;;;22.03;6.97;;;;;;;;;;10324786;28;20455;-55
2023/05/20 23:16:40;;;;;;;7.13;5.97;;;;;;;;;;10318088;28;20125;-56
2023/05/20 23:21:41;;;;;;;10.52;7.15;;;;;;;;;;10327225;28;20062;-54
2023/05/20 23:26:42;;;;;;;7.10;6.40;;;;;;;;;;10326659;28;20431;-53
2023/05/20 23:31:43;;;;;;;9.45;6.90;;;;;;;;;;10327525;28;20019;-55
2023/05/20 23:36:44;;;;;;;7.20;6.45;;;;;;;;;;10341733;28;20058;-56
2023/05/20 23:41:44;;;;;;;8.02;6.55;;;;;;;;;;10326805;28;20398;-56
2023/05/20 23:46:45;;;;;;;9.00;6.72;;;;;;;;;;10327397;28;20077;-55
2023/05/20 23:51:45;;;;;;;16.03;8.70;;;;;;;;;;10327457;28;20034;-53
2023/05/20 23:56:46;;;;;;;7.63;6.83;;;;;;;;;;10326869;28;21002;-55
